createdAt,value
2017-10-07T00:00:01.738Z,10.30
2017-10-07T00:02:29.573Z,10.30
2017-10-07T00:04:57.824Z,10.30
2017-10-07T00:07:25.315Z,10.30
2017-10-07T00:09:52.822Z,10.30
2017-10-07T00:12:20.314Z,10.30
2017-10-07T00:14:47.834Z,10.30
2017-10-07T00:17:15.341Z,10.30
2017-10-07T00:19:42.818Z,10.40
2017-10-07T00:22:11.048Z,10.40
2017-10-07T00:24:38.549Z,10.40
2017-10-07T00:27:06.866Z,10.40
2017-10-07T00:29:34.338Z,10.40
2017-10-07T00:32:01.892Z,10.40
2017-10-07T00:34:30.197Z,10.40
2017-10-07T00:36:57.712Z,10.40
2017-10-07T00:39:25.311Z,10.40
2017-10-07T00:41:52.785Z,10.40
2017-10-07T00:44:21.028Z,10.40
2017-10-07T00:46:48.713Z,10.40
2017-10-07T00:49:16.182Z,10.40
2017-10-07T00:51:43.648Z,10.40
2017-10-07T00:54:12.065Z,10.40
2017-10-07T00:56:39.528Z,10.40
2017-10-07T00:59:07.019Z,10.40
2017-10-07T01:01:34.496Z,10.40
2017-10-07T01:04:02.804Z,10.40
2017-10-07T01:06:30.276Z,10.40
2017-10-07T01:08:57.890Z,10.40
2017-10-07T01:11:26.165Z,10.40
2017-10-07T01:13:54.405Z,10.40
2017-10-07T01:16:21.899Z,10.40
2017-10-07T01:18:50.131Z,10.50
2017-10-07T01:21:17.619Z,10.50
2017-10-07T01:23:45.893Z,10.50
2017-10-07T01:26:14.182Z,10.50
2017-10-07T01:28:42.508Z,10.60
2017-10-07T01:31:10.032Z,10.50
2017-10-07T01:33:38.268Z,10.60
2017-10-07T01:36:05.798Z,10.60
2017-10-07T01:38:33.390Z,10.60
2017-10-07T01:41:00.854Z,10.50
2017-10-07T01:43:29.101Z,10.50
2017-10-07T01:45:56.579Z,10.50
2017-10-07T01:48:24.060Z,10.50
2017-10-07T01:50:52.377Z,10.50
2017-10-07T01:53:19.917Z,10.50
2017-10-07T01:55:47.443Z,10.50
2017-10-07T01:58:15.670Z,10.60
2017-10-07T02:00:43.515Z,10.60
2017-10-07T02:03:11.070Z,10.50
2017-10-07T02:05:38.572Z,10.50
2017-10-07T02:08:06.128Z,10.60
2017-10-07T02:10:33.625Z,10.60
2017-10-07T02:13:01.876Z,10.60
2017-10-07T02:15:29.409Z,10.60
2017-10-07T02:17:56.886Z,10.60
2017-10-07T02:20:24.405Z,10.60
2017-10-07T02:22:51.902Z,10.50
2017-10-07T02:25:19.446Z,10.60
2017-10-07T02:27:46.934Z,10.60
2017-10-07T02:30:14.435Z,10.60
2017-10-07T02:32:41.964Z,10.60
2017-10-07T02:35:10.689Z,10.60
2017-10-07T02:37:38.522Z,10.60
2017-10-07T02:40:06.828Z,10.60
2017-10-07T02:42:34.303Z,10.60
2017-10-07T02:45:02.468Z,10.60
2017-10-07T02:47:29.997Z,10.60
2017-10-07T02:49:57.475Z,10.70
2017-10-07T02:52:25.772Z,10.70
2017-10-07T02:54:53.239Z,10.60
2017-10-07T02:57:20.794Z,10.60
2017-10-07T02:59:48.741Z,10.60
2017-10-07T03:02:16.229Z,10.60
2017-10-07T03:04:43.696Z,10.60
2017-10-07T03:07:11.194Z,10.60
2017-10-07T03:09:39.039Z,10.70
2017-10-07T03:12:07.355Z,10.60
2017-10-07T03:14:35.093Z,10.60
2017-10-07T03:17:03.308Z,10.50
2017-10-07T03:19:30.822Z,10.50
2017-10-07T03:21:59.276Z,10.50
2017-10-07T03:24:26.739Z,10.40
2017-10-07T03:26:54.233Z,10.50
2017-10-07T03:29:21.750Z,10.50
2017-10-07T03:31:49.241Z,10.50
2017-10-07T03:34:16.717Z,10.50
2017-10-07T03:36:44.250Z,10.50
2017-10-07T03:39:11.809Z,10.50
2017-10-07T03:41:40.351Z,10.40
2017-10-07T03:44:07.864Z,10.40
2017-10-07T03:46:35.353Z,10.40
2017-10-07T03:49:02.861Z,10.40
2017-10-07T03:51:31.342Z,10.40
2017-10-07T03:53:59.596Z,10.40
2017-10-07T03:56:27.061Z,10.40
2017-10-07T03:58:54.705Z,10.30
2017-10-07T04:01:22.178Z,10.30
2017-10-07T04:03:49.640Z,10.30
2017-10-07T04:06:17.904Z,10.20
2017-10-07T04:08:45.382Z,10.20
2017-10-07T04:11:12.952Z,10.10
2017-10-07T04:13:40.837Z,10.10
2017-10-07T04:16:08.325Z,10.10
2017-10-07T04:18:35.828Z,10.20
2017-10-07T04:21:04.061Z,10.20
2017-10-07T04:23:31.563Z,10.20
2017-10-07T04:25:59.052Z,10.10
2017-10-07T04:28:26.563Z,10.10
2017-10-07T04:30:54.802Z,10.00
2017-10-07T04:33:22.306Z,10.00
2017-10-07T04:35:49.765Z,10.00
2017-10-07T04:38:17.998Z,9.90
2017-10-07T04:40:45.576Z,9.90
2017-10-07T04:43:13.059Z,9.90
2017-10-07T04:45:41.427Z,9.90
2017-10-07T04:48:09.918Z,9.90
2017-10-07T04:50:38.149Z,9.80
2017-10-07T04:53:05.624Z,9.80
2017-10-07T04:55:33.291Z,9.90
2017-10-07T05:01:03.733Z,9.90
2017-10-07T05:03:31.224Z,9.90
2017-10-07T05:05:58.709Z,9.80
2017-10-07T05:08:26.308Z,9.80
2017-10-07T05:10:53.795Z,9.80
2017-10-07T05:13:21.341Z,9.70
2017-10-07T05:15:49.748Z,9.80
2017-10-07T05:18:17.218Z,9.80
2017-10-07T05:20:45.077Z,9.80
2017-10-07T05:23:12.787Z,9.90
2017-10-07T05:25:40.285Z,9.80
2017-10-07T05:28:07.754Z,9.70
2017-10-07T05:30:35.420Z,9.70
2017-10-07T05:33:02.917Z,9.70
2017-10-07T05:35:30.426Z,9.70
2017-10-07T05:37:57.937Z,9.60
2017-10-07T05:40:25.434Z,9.60
2017-10-07T05:42:52.932Z,9.60
2017-10-07T05:45:20.428Z,9.70
2017-10-07T05:47:48.655Z,9.70
2017-10-07T05:50:16.382Z,9.70
2017-10-07T05:52:44.616Z,9.70
2017-10-07T05:55:12.173Z,9.70
2017-10-07T05:57:39.646Z,9.70
2017-10-07T06:00:07.919Z,9.70
2017-10-07T06:02:36.194Z,9.70
2017-10-07T06:05:03.752Z,9.70
2017-10-07T06:07:31.485Z,9.70
2017-10-07T06:09:58.979Z,9.70
2017-10-07T06:12:26.437Z,9.80
2017-10-07T06:14:55.042Z,9.80
2017-10-07T06:17:22.528Z,9.80
2017-10-07T06:19:50.006Z,9.90
2017-10-07T06:22:17.902Z,9.90
2017-10-07T06:24:45.383Z,10.00
2017-10-07T06:27:13.628Z,10.10
2017-10-07T06:29:41.320Z,10.10
2017-10-07T06:32:09.587Z,10.10
2017-10-07T06:34:37.835Z,10.20
2017-10-07T06:37:06.970Z,10.20
2017-10-07T06:39:35.240Z,10.30
2017-10-07T06:42:02.748Z,10.30
2017-10-07T06:44:30.480Z,10.30
2017-10-07T06:46:58.188Z,10.40
2017-10-07T06:49:25.678Z,10.40
2017-10-07T06:51:54.042Z,10.60
2017-10-07T06:54:21.629Z,10.60
2017-10-07T06:56:49.898Z,10.70
2017-10-07T06:59:18.559Z,10.80
2017-10-07T07:01:47.255Z,10.80
2017-10-07T07:04:15.588Z,10.80
2017-10-07T07:06:43.089Z,10.70
2017-10-07T07:09:11.344Z,10.80
2017-10-07T07:11:38.835Z,10.80
2017-10-07T07:14:07.106Z,11.00
2017-10-07T07:16:35.372Z,11.10
2017-10-07T07:19:02.939Z,11.10
2017-10-07T07:21:31.329Z,11.10
2017-10-07T07:23:58.803Z,11.10
2017-10-07T07:26:26.311Z,11.10
2017-10-07T07:28:53.806Z,11.10
2017-10-07T07:31:21.361Z,11.10
2017-10-07T07:33:49.575Z,11.20
2017-10-07T07:36:17.397Z,11.20
2017-10-07T07:38:45.630Z,11.40
2017-10-07T07:41:13.140Z,11.40
2017-10-07T07:43:41.087Z,11.50
2017-10-07T07:46:09.313Z,11.60
2017-10-07T07:48:36.838Z,11.60
2017-10-07T07:51:05.094Z,11.50
2017-10-07T07:53:33.419Z,11.50
2017-10-07T07:56:00.898Z,11.50
2017-10-07T07:58:28.509Z,11.50
2017-10-07T08:00:57.001Z,11.40
2017-10-07T08:03:24.497Z,11.40
2017-10-07T08:05:52.007Z,11.40
2017-10-07T08:08:19.492Z,11.40
2017-10-07T08:10:47.035Z,11.40
2017-10-07T08:13:14.513Z,11.40
2017-10-07T08:15:42.061Z,11.40
2017-10-07T08:18:09.560Z,11.40
2017-10-07T08:20:37.107Z,11.40
2017-10-07T08:23:04.581Z,11.40
2017-10-07T08:25:32.503Z,11.50
2017-10-07T08:27:59.977Z,11.60
2017-10-07T08:30:27.456Z,11.70
2017-10-07T08:32:55.135Z,11.60
2017-10-07T08:35:23.553Z,11.80
2017-10-07T08:37:51.088Z,11.70
2017-10-07T08:40:19.578Z,11.70
2017-10-07T08:42:47.058Z,11.70
2017-10-07T08:45:14.526Z,11.60
2017-10-07T08:47:42.183Z,11.60
2017-10-07T08:50:09.639Z,11.70
2017-10-07T08:52:37.138Z,11.80
2017-10-07T08:55:04.868Z,12.00
2017-10-07T08:57:32.396Z,12.10
2017-10-07T08:59:59.922Z,12.40
2017-10-07T09:02:27.430Z,12.30
2017-10-07T09:04:54.946Z,12.20
2017-10-07T09:07:23.320Z,12.10
2017-10-07T09:09:51.136Z,12.10
2017-10-07T09:12:19.399Z,12.20
2017-10-07T09:14:46.912Z,12.20
2017-10-07T09:17:14.810Z,12.40
2017-10-07T09:19:43.049Z,12.50
2017-10-07T09:22:10.531Z,12.50
2017-10-07T09:24:39.056Z,12.80
2017-10-07T09:27:06.605Z,12.70
2017-10-07T09:29:34.856Z,12.80
2017-10-07T09:32:02.912Z,12.70
2017-10-07T09:34:31.187Z,12.80
2017-10-07T09:36:59.452Z,12.80
2017-10-07T09:39:26.966Z,12.70
2017-10-07T09:41:54.503Z,12.80
2017-10-07T09:44:22.728Z,12.90
2017-10-07T09:46:50.284Z,12.90
2017-10-07T09:49:17.898Z,12.80
2017-10-07T09:51:45.608Z,12.90
2017-10-07T09:54:13.341Z,12.90
2017-10-07T09:56:40.911Z,12.90
2017-10-07T09:59:09.086Z,12.70
2017-10-07T10:01:36.648Z,12.70
2017-10-07T10:04:04.137Z,12.70
2017-10-07T10:06:31.680Z,12.60
2017-10-07T10:08:59.171Z,12.70
2017-10-07T10:11:27.457Z,12.80
2017-10-07T10:13:54.930Z,12.80
2017-10-07T10:16:22.502Z,12.80
2017-10-07T10:18:49.984Z,12.80
2017-10-07T10:21:17.464Z,12.80
2017-10-07T10:23:44.966Z,12.70
2017-10-07T10:26:13.076Z,12.70
2017-10-07T10:28:40.579Z,12.70
2017-10-07T10:31:10.070Z,12.80
2017-10-07T10:33:38.979Z,12.80
2017-10-07T10:36:07.224Z,12.90
2017-10-07T10:38:34.740Z,12.90
2017-10-07T10:41:02.514Z,12.90
2017-10-07T10:43:30.055Z,12.80
2017-10-07T10:45:57.594Z,12.80
2017-10-07T10:48:25.865Z,12.90
2017-10-07T10:50:54.293Z,12.90
2017-10-07T10:53:21.834Z,12.90
2017-10-07T10:55:49.319Z,12.90
2017-10-07T10:58:17.095Z,12.90
2017-10-07T11:00:44.609Z,13.10
2017-10-07T11:03:12.933Z,13.00
2017-10-07T11:05:40.470Z,13.00
2017-10-07T11:08:07.962Z,13.00
2017-10-07T11:10:36.194Z,13.00
2017-10-07T11:13:03.678Z,13.00
2017-10-07T11:15:31.456Z,13.00
2017-10-07T11:17:58.978Z,13.00
2017-10-07T11:20:26.469Z,12.90
2017-10-07T11:22:53.994Z,12.80
2017-10-07T11:25:21.538Z,12.70
2017-10-07T11:27:49.035Z,12.70
2017-10-07T11:30:16.566Z,12.70
2017-10-07T11:32:44.210Z,12.70
2017-10-07T11:35:12.585Z,12.60
2017-10-07T11:37:40.119Z,12.50
2017-10-07T11:40:08.367Z,12.40
2017-10-07T11:42:35.895Z,12.40
2017-10-07T11:45:03.389Z,12.30
2017-10-07T11:47:30.865Z,12.20
2017-10-07T11:49:59.152Z,12.20
2017-10-07T11:52:26.638Z,12.20
2017-10-07T11:54:54.599Z,12.10
2017-10-07T11:57:22.182Z,12.10
2017-10-07T11:59:49.716Z,12.00
2017-10-07T12:02:17.327Z,11.90
2017-10-07T12:04:44.855Z,11.80
2017-10-07T12:07:12.387Z,11.70
2017-10-07T12:09:39.948Z,11.70
2017-10-07T12:12:07.629Z,11.70
2017-10-07T12:14:35.124Z,11.70
2017-10-07T12:17:04.185Z,11.70
2017-10-07T12:19:32.025Z,11.70
2017-10-07T12:21:59.694Z,11.70
2017-10-07T12:24:27.275Z,11.70
2017-10-07T12:26:54.809Z,11.70
2017-10-07T12:29:22.308Z,11.80
2017-10-07T12:31:49.770Z,11.80
2017-10-07T12:34:17.320Z,11.80
2017-10-07T12:36:44.827Z,11.80
2017-10-07T12:39:13.841Z,12.00
2017-10-07T12:41:41.354Z,12.00
2017-10-07T12:44:09.673Z,12.00
2017-10-07T12:46:37.154Z,12.00
2017-10-07T12:49:04.852Z,12.00
2017-10-07T12:51:33.169Z,11.90
2017-10-07T12:54:00.668Z,11.90
2017-10-07T12:56:28.141Z,11.90
2017-10-07T12:58:56.419Z,12.00
2017-10-07T13:01:24.025Z,11.90
2017-10-07T13:03:51.595Z,12.10
2017-10-07T13:06:19.191Z,12.10
2017-10-07T13:08:47.590Z,12.20
2017-10-07T13:11:15.962Z,12.20
2017-10-07T13:13:44.327Z,12.30
2017-10-07T13:16:11.847Z,12.30
2017-10-07T13:18:39.362Z,12.40
2017-10-07T13:21:07.421Z,12.30
2017-10-07T13:23:34.957Z,12.30
2017-10-07T13:26:02.580Z,12.30
2017-10-07T13:28:30.082Z,12.30
2017-10-07T13:30:57.593Z,12.30
2017-10-07T13:33:25.263Z,12.30
2017-10-07T13:35:52.859Z,12.30
2017-10-07T13:38:20.325Z,12.30
2017-10-07T13:40:47.864Z,12.20
2017-10-07T13:43:15.403Z,12.20
2017-10-07T13:45:42.960Z,12.10
2017-10-07T13:48:10.565Z,12.20
2017-10-07T13:50:39.538Z,12.80
2017-10-07T13:53:07.070Z,12.80
2017-10-07T13:55:34.637Z,12.80
2017-10-07T13:58:02.117Z,12.70
2017-10-07T14:00:29.617Z,12.70
2017-10-07T14:02:57.891Z,12.70
2017-10-07T14:05:26.138Z,12.70
2017-10-07T14:07:53.629Z,12.70
2017-10-07T14:10:21.425Z,12.80
2017-10-07T14:12:48.908Z,12.70
2017-10-07T14:15:16.428Z,12.70
2017-10-07T14:17:44.018Z,12.70
2017-10-07T14:20:11.519Z,12.70
2017-10-07T14:22:39.843Z,12.70
2017-10-07T14:25:07.414Z,12.70
2017-10-07T14:27:35.688Z,12.90
2017-10-07T14:30:03.168Z,12.90
2017-10-07T14:32:30.829Z,12.90
2017-10-07T14:34:58.296Z,12.70
2017-10-07T14:37:26.672Z,12.50
2017-10-07T14:39:54.161Z,12.50
2017-10-07T14:42:21.681Z,12.50
2017-10-07T14:44:50.395Z,12.50
2017-10-07T14:47:18.693Z,12.50
2017-10-07T14:49:47.108Z,12.50
2017-10-07T14:52:14.822Z,12.50
2017-10-07T14:54:42.433Z,12.40
2017-10-07T14:57:09.940Z,12.40
2017-10-07T14:59:37.495Z,12.30
2017-10-07T15:02:05.021Z,12.30
2017-10-07T15:04:32.502Z,12.40
2017-10-07T15:07:00.341Z,12.30
2017-10-07T15:09:27.907Z,12.30
2017-10-07T15:11:55.413Z,12.30
2017-10-07T15:14:22.994Z,12.30
2017-10-07T15:16:50.484Z,12.20
2017-10-07T15:19:18.070Z,12.20
2017-10-07T15:21:46.346Z,12.10
2017-10-07T15:24:13.837Z,12.20
2017-10-07T15:26:41.354Z,12.20
2017-10-07T15:29:09.813Z,12.10
2017-10-07T15:31:37.418Z,12.10
2017-10-07T15:34:05.130Z,12.10
2017-10-07T15:36:32.647Z,12.10
2017-10-07T15:39:00.109Z,12.10
2017-10-07T15:41:27.687Z,12.10
2017-10-07T15:43:55.282Z,12.10
2017-10-07T15:46:23.528Z,12.20
2017-10-07T15:48:51.135Z,12.20
2017-10-07T15:51:18.608Z,12.10
2017-10-07T15:53:46.078Z,12.10
2017-10-07T15:56:13.748Z,12.00
2017-10-07T15:58:41.630Z,12.00
2017-10-07T16:01:09.121Z,12.00
2017-10-07T16:03:37.509Z,12.00
2017-10-07T16:06:05.758Z,11.90
2017-10-07T16:08:33.262Z,11.90
2017-10-07T16:11:01.154Z,11.90
2017-10-07T16:13:28.636Z,11.90
2017-10-07T16:15:56.094Z,11.80
2017-10-07T16:18:23.792Z,11.80
2017-10-07T16:20:52.191Z,11.80
2017-10-07T16:23:19.643Z,11.80
2017-10-07T16:25:47.188Z,11.80
2017-10-07T16:28:14.697Z,11.80
2017-10-07T16:30:42.252Z,11.80
2017-10-07T16:33:10.059Z,11.70
2017-10-07T16:35:38.369Z,11.50
2017-10-07T16:38:05.881Z,11.50
2017-10-07T16:40:33.401Z,11.50
2017-10-07T16:43:00.906Z,11.50
2017-10-07T16:45:29.182Z,11.60
2017-10-07T16:47:57.600Z,11.60
2017-10-07T16:50:25.087Z,11.60
2017-10-07T16:52:52.729Z,11.60
2017-10-07T16:55:20.217Z,12.00
2017-10-07T16:57:47.692Z,11.90
2017-10-07T17:00:15.997Z,11.70
2017-10-07T17:02:43.551Z,11.60
2017-10-07T17:05:11.045Z,11.70
2017-10-07T17:07:38.522Z,11.60
2017-10-07T17:10:06.088Z,11.60
2017-10-07T17:12:33.575Z,11.60
2017-10-07T17:15:01.117Z,11.60
2017-10-07T17:17:29.389Z,11.60
2017-10-07T17:19:56.994Z,11.60
2017-10-07T17:22:24.478Z,11.60
2017-10-07T17:24:52.275Z,11.60
2017-10-07T17:27:20.539Z,11.70
2017-10-07T17:29:48.045Z,11.60
2017-10-07T17:32:15.675Z,11.70
2017-10-07T17:34:43.933Z,11.70
2017-10-07T17:37:11.427Z,11.70
2017-10-07T17:39:39.151Z,11.70
2017-10-07T17:42:06.691Z,11.70
2017-10-07T17:44:34.218Z,11.70
2017-10-07T17:47:01.836Z,11.80
2017-10-07T17:49:30.125Z,11.60
2017-10-07T17:51:58.463Z,11.80
2017-10-07T17:54:26.008Z,11.80
2017-10-07T17:56:53.613Z,11.80
2017-10-07T17:59:21.898Z,11.50
2017-10-07T18:01:50.762Z,11.40
2017-10-07T18:04:18.280Z,11.40
2017-10-07T18:06:45.741Z,11.40
2017-10-07T18:09:13.287Z,11.30
2017-10-07T18:11:40.851Z,11.30
2017-10-07T18:14:08.332Z,11.20
2017-10-07T18:16:35.874Z,11.30
2017-10-07T18:19:03.394Z,11.30
2017-10-07T18:21:32.313Z,11.40
2017-10-07T18:23:59.823Z,11.40
2017-10-07T18:26:27.404Z,11.40
2017-10-07T18:28:55.650Z,11.50
2017-10-07T18:31:23.132Z,11.50
2017-10-07T18:33:51.481Z,11.60
2017-10-07T18:36:18.987Z,11.60
2017-10-07T18:38:47.358Z,11.70
2017-10-07T18:41:15.616Z,11.70
2017-10-07T18:43:43.091Z,11.70
2017-10-07T18:46:10.625Z,11.70
2017-10-07T18:48:38.118Z,11.70
2017-10-07T18:51:05.979Z,11.70
2017-10-07T18:53:34.278Z,11.80
2017-10-07T18:56:02.178Z,11.70
2017-10-07T18:58:29.687Z,11.80
2017-10-07T19:00:57.268Z,11.80
2017-10-07T19:03:24.871Z,11.80
2017-10-07T19:05:52.400Z,11.80
2017-10-07T19:08:19.877Z,11.80
2017-10-07T19:10:47.927Z,11.80
2017-10-07T19:13:15.499Z,11.80
2017-10-07T19:15:43.008Z,11.80
2017-10-07T19:18:10.557Z,11.80
2017-10-07T19:20:39.364Z,11.80
2017-10-07T19:23:06.889Z,11.80
2017-10-07T19:25:34.417Z,11.80
2017-10-07T19:28:01.912Z,11.80
2017-10-07T19:30:30.188Z,11.80
2017-10-07T19:32:58.515Z,11.80
2017-10-07T19:35:26.060Z,11.80
2017-10-07T19:37:53.594Z,11.70
2017-10-07T19:40:21.137Z,11.70
2017-10-07T19:42:49.784Z,11.60
2017-10-07T19:45:18.243Z,11.60
2017-10-07T19:47:45.825Z,11.50
2017-10-07T19:50:13.459Z,11.50
2017-10-07T19:52:41.036Z,11.40
2017-10-07T19:55:08.596Z,11.30
2017-10-07T19:57:36.108Z,11.20
2017-10-07T20:00:03.866Z,11.20
2017-10-07T20:02:33.335Z,11.10
2017-10-07T20:05:00.861Z,11.10
2017-10-07T20:07:28.437Z,11.10
2017-10-07T20:10:02.840Z,11.00
2017-10-07T20:15:07.132Z,10.90
2017-10-07T20:17:34.669Z,10.90
2017-10-07T20:20:02.379Z,10.90
2017-10-07T20:22:29.900Z,11.00
2017-10-07T20:24:57.778Z,10.90
2017-10-07T20:27:26.172Z,10.90
2017-10-07T20:29:53.689Z,10.90
2017-10-07T20:32:21.185Z,10.90
2017-10-07T20:34:49.459Z,10.90
2017-10-07T20:37:17.766Z,10.90
2017-10-07T20:39:45.490Z,10.90
2017-10-07T20:42:13.749Z,10.90
2017-10-07T20:44:41.397Z,10.90
2017-10-07T20:47:08.986Z,10.90
2017-10-07T20:49:36.438Z,10.90
2017-10-07T20:52:03.940Z,10.90
2017-10-07T20:54:31.896Z,10.90
2017-10-07T20:57:00.348Z,10.90
2017-10-07T20:59:28.402Z,10.90
2017-10-07T21:01:56.068Z,10.90
2017-10-07T21:04:23.616Z,10.90
2017-10-07T21:06:51.295Z,10.90
2017-10-07T21:09:19.171Z,11.00
2017-10-07T21:11:47.477Z,11.00
2017-10-07T21:14:15.188Z,11.00
2017-10-07T21:16:42.750Z,11.00
2017-10-07T21:19:10.268Z,11.10
2017-10-07T21:21:37.897Z,11.10
2017-10-07T21:24:06.223Z,11.10
2017-10-07T21:26:33.723Z,11.10
2017-10-07T21:29:02.023Z,11.10
2017-10-07T21:31:30.280Z,11.10
2017-10-07T21:33:58.538Z,11.10
2017-10-07T21:36:26.805Z,11.10
2017-10-07T21:38:54.527Z,11.10
2017-10-07T21:41:22.061Z,11.10
2017-10-07T21:43:50.366Z,11.10
2017-10-07T21:46:17.944Z,11.10
2017-10-07T21:48:45.413Z,11.10
2017-10-07T21:51:12.942Z,11.10
2017-10-07T21:53:40.471Z,11.10
2017-10-07T21:56:08.706Z,11.20
2017-10-07T21:58:36.276Z,11.10
2017-10-07T22:01:03.801Z,11.10
2017-10-07T22:03:31.335Z,11.10
2017-10-07T22:05:59.634Z,11.10
2017-10-07T22:08:27.180Z,11.10
2017-10-07T22:10:54.676Z,11.10
2017-10-07T22:13:22.153Z,11.10
2017-10-07T22:15:50.417Z,11.10
2017-10-07T22:18:18.420Z,11.10
2017-10-07T22:20:46.730Z,11.10
2017-10-07T22:23:14.486Z,11.10
2017-10-07T22:25:41.971Z,11.10
2017-10-07T22:28:09.479Z,11.20
2017-10-07T22:30:37.977Z,11.10
2017-10-07T22:33:05.440Z,11.10
2017-10-07T22:35:33.151Z,11.20
2017-10-07T22:38:00.874Z,11.20
2017-10-07T22:40:28.744Z,11.20
2017-10-07T22:42:56.196Z,11.10
2017-10-07T22:45:23.882Z,11.10
2017-10-07T22:47:52.033Z,11.10
2017-10-07T22:50:19.571Z,11.10
2017-10-07T22:52:47.397Z,11.10
2017-10-07T22:55:14.863Z,11.10
2017-10-07T22:57:42.672Z,11.10
2017-10-07T23:00:10.523Z,11.10
2017-10-07T23:02:38.786Z,11.10
2017-10-07T23:05:07.077Z,11.10
2017-10-07T23:07:35.741Z,11.10
2017-10-07T23:10:03.241Z,11.10
2017-10-07T23:12:30.719Z,11.10
2017-10-07T23:14:58.360Z,11.10
2017-10-07T23:17:25.867Z,11.10
2017-10-07T23:19:53.369Z,11.20
2017-10-07T23:22:32.884Z,11.10
2017-10-07T23:25:02.080Z,11.20
2017-10-07T23:27:30.342Z,11.20
2017-10-07T23:29:59.097Z,11.20
2017-10-07T23:32:27.077Z,11.20
2017-10-07T23:34:54.552Z,11.30
2017-10-07T23:37:22.104Z,11.20
2017-10-07T23:39:49.590Z,11.20
2017-10-07T23:42:17.866Z,11.20
2017-10-07T23:44:46.275Z,11.30
2017-10-07T23:47:13.769Z,11.20
2017-10-07T23:49:42.777Z,11.20
2017-10-07T23:52:11.069Z,11.20
2017-10-07T23:54:39.651Z,11.30
2017-10-07T23:57:07.948Z,11.30
2017-10-07T23:59:35.475Z,11.30
